sensor_id;sensor_type;location;lat;lon;timestamp;temperature;humidity
16253;DHT22;8234;41.480;2.306;2023-01-28T00:03:52;4.40;99.90
16253;DHT22;8234;41.480;2.306;2023-01-28T00:13:57;4.50;99.90
16253;DHT22;8234;41.480;2.306;2023-01-28T00:24:02;4.40;99.90
16253;DHT22;8234;41.480;2.306;2023-01-28T00:34:08;4.40;99.90
16253;DHT22;8234;41.480;2.306;2023-01-28T00:44:12;4.50;99.90
16253;DHT22;8234;41.480;2.306;2023-01-28T00:54:17;4.30;99.90
16253;DHT22;8234;41.480;2.306;2023-01-28T01:04:20;4.40;99.90
16253;DHT22;8234;41.480;2.306;2023-01-28T01:14:30;4.70;99.90
16253;DHT22;8234;41.480;2.306;2023-01-28T01:24:34;4.90;99.90
16253;DHT22;8234;41.480;2.306;2023-01-28T01:34:39;5.30;99.90
16253;DHT22;8234;41.480;2.306;2023-01-28T01:44:56;5.40;99.90
16253;DHT22;8234;41.480;2.306;2023-01-28T01:55:05;5.40;99.90
16253;DHT22;8234;41.480;2.306;2023-01-28T02:05:12;5.30;99.90
16253;DHT22;8234;41.480;2.306;2023-01-28T02:15:20;5.50;99.90
16253;DHT22;8234;41.480;2.306;2023-01-28T02:25:36;5.60;99.90
16253;DHT22;8234;41.480;2.306;2023-01-28T02:35:47;5.50;99.90
16253;DHT22;8234;41.480;2.306;2023-01-28T02:45:51;5.50;99.90
16253;DHT22;8234;41.480;2.306;2023-01-28T02:56:21;5.30;99.90
16253;DHT22;8234;41.480;2.306;2023-01-28T03:06:32;5.20;99.90
16253;DHT22;8234;41.480;2.306;2023-01-28T03:16:41;4.90;99.90
16253;DHT22;8234;41.480;2.306;2023-01-28T03:27:05;4.70;99.90
16253;DHT22;8234;41.480;2.306;2023-01-28T03:37:28;4.60;99.90
16253;DHT22;8234;41.480;2.306;2023-01-28T03:47:33;4.60;99.90
16253;DHT22;8234;41.480;2.306;2023-01-28T03:57:38;4.70;99.90
16253;DHT22;8234;41.480;2.306;2023-01-28T04:07:42;5.00;99.90
16253;DHT22;8234;41.480;2.306;2023-01-28T04:17:47;5.00;99.90
16253;DHT22;8234;41.480;2.306;2023-01-28T04:27:51;5.10;99.90
16253;DHT22;8234;41.480;2.306;2023-01-28T04:37:57;5.20;99.90
16253;DHT22;8234;41.480;2.306;2023-01-28T04:48:01;5.40;99.90
16253;DHT22;8234;41.480;2.306;2023-01-28T04:58:06;5.40;99.90
16253;DHT22;8234;41.480;2.306;2023-01-28T05:08:10;5.30;99.90
16253;DHT22;8234;41.480;2.306;2023-01-28T05:18:15;5.20;99.90
16253;DHT22;8234;41.480;2.306;2023-01-28T05:28:19;5.10;99.90
16253;DHT22;8234;41.480;2.306;2023-01-28T05:38:24;5.00;99.90
16253;DHT22;8234;41.480;2.306;2023-01-28T05:48:28;5.00;99.90
16253;DHT22;8234;41.480;2.306;2023-01-28T05:58:33;5.00;99.90
16253;DHT22;8234;41.480;2.306;2023-01-28T06:08:38;5.10;99.90
16253;DHT22;8234;41.480;2.306;2023-01-28T06:18:43;5.20;99.90
16253;DHT22;8234;41.480;2.306;2023-01-28T06:28:47;4.90;99.90
16253;DHT22;8234;41.480;2.306;2023-01-28T06:38:55;4.50;99.90
16253;DHT22;8234;41.480;2.306;2023-01-28T06:48:59;4.20;99.90
16253;DHT22;8234;41.480;2.306;2023-01-28T06:59:04;4.10;99.90
16253;DHT22;8234;41.480;2.306;2023-01-28T07:09:10;4.00;99.90
16253;DHT22;8234;41.480;2.306;2023-01-28T07:19:15;4.00;99.90
16253;DHT22;8234;41.480;2.306;2023-01-28T07:29:19;4.00;99.90
16253;DHT22;8234;41.480;2.306;2023-01-28T07:39:24;4.10;99.90
16253;DHT22;8234;41.480;2.306;2023-01-28T07:49:28;4.20;99.90
16253;DHT22;8234;41.480;2.306;2023-01-28T07:59:34;4.30;99.90
16253;DHT22;8234;41.480;2.306;2023-01-28T08:09:37;4.60;99.90
16253;DHT22;8234;41.480;2.306;2023-01-28T08:19:43;4.80;99.90
16253;DHT22;8234;41.480;2.306;2023-01-28T08:29:46;4.80;99.90
16253;DHT22;8234;41.480;2.306;2023-01-28T08:39:52;5.10;99.90
16253;DHT22;8234;41.480;2.306;2023-01-28T08:49:56;5.40;99.90
16253;DHT22;8234;41.480;2.306;2023-01-28T09:00:01;5.80;99.90
16253;DHT22;8234;41.480;2.306;2023-01-28T09:10:06;6.10;99.90
16253;DHT22;8234;41.480;2.306;2023-01-28T09:20:11;6.00;99.90
16253;DHT22;8234;41.480;2.306;2023-01-28T09:30:16;5.90;99.90
16253;DHT22;8234;41.480;2.306;2023-01-28T09:40:32;6.20;99.90
16253;DHT22;8234;41.480;2.306;2023-01-28T09:50:39;6.60;99.90
16253;DHT22;8234;41.480;2.306;2023-01-28T10:00:52;6.40;99.90
16253;DHT22;8234;41.480;2.306;2023-01-28T10:11:06;7.10;99.90
16253;DHT22;8234;41.480;2.306;2023-01-28T10:21:19;7.90;99.90
16253;DHT22;8234;41.480;2.306;2023-01-28T10:31:30;8.40;99.90
16253;DHT22;8234;41.480;2.306;2023-01-28T10:41:35;8.20;99.90
16253;DHT22;8234;41.480;2.306;2023-01-28T10:51:57;8.40;99.90
16253;DHT22;8234;41.480;2.306;2023-01-28T11:02:04;8.90;99.90
16253;DHT22;8234;41.480;2.306;2023-01-28T11:12:13;9.40;99.90
16253;DHT22;8234;41.480;2.306;2023-01-28T11:22:25;9.80;99.90
16253;DHT22;8234;41.480;2.306;2023-01-28T11:32:30;10.20;99.90
16253;DHT22;8234;41.480;2.306;2023-01-28T11:42:37;11.60;99.90
16253;DHT22;8234;41.480;2.306;2023-01-28T11:52:56;11.10;99.90
16253;DHT22;8234;41.480;2.306;2023-01-28T12:03:25;11.40;99.90
16253;DHT22;8234;41.480;2.306;2023-01-28T12:13:45;11.60;99.90
16253;DHT22;8234;41.480;2.306;2023-01-28T12:24:01;11.80;99.90
16253;DHT22;8234;41.480;2.306;2023-01-28T12:44:50;11.80;99.90
16253;DHT22;8234;41.480;2.306;2023-01-28T12:55:00;11.70;99.90
16253;DHT22;8234;41.480;2.306;2023-01-28T13:05:12;14.40;99.90
16253;DHT22;8234;41.480;2.306;2023-01-28T13:15:18;14.20;99.90
16253;DHT22;8234;41.480;2.306;2023-01-28T13:25:26;12.00;99.90
16253;DHT22;8234;41.480;2.306;2023-01-28T13:35:35;10.90;99.90
16253;DHT22;8234;41.480;2.306;2023-01-28T13:45:41;11.40;99.90
16253;DHT22;8234;41.480;2.306;2023-01-28T13:55:46;12.80;99.90
16253;DHT22;8234;41.480;2.306;2023-01-28T14:06:16;13.20;99.90
16253;DHT22;8234;41.480;2.306;2023-01-28T14:16:33;11.60;99.90
16253;DHT22;8234;41.480;2.306;2023-01-28T14:26:48;12.40;99.90
16253;DHT22;8234;41.480;2.306;2023-01-28T14:36:59;11.90;99.90
16253;DHT22;8234;41.480;2.306;2023-01-28T14:57:44;13.50;99.90
16253;DHT22;8234;41.480;2.306;2023-01-28T15:07:52;11.60;99.90
16253;DHT22;8234;41.480;2.306;2023-01-28T15:18:01;12.20;99.90
16253;DHT22;8234;41.480;2.306;2023-01-28T15:28:14;11.10;99.90
16253;DHT22;8234;41.480;2.306;2023-01-28T15:38:20;10.50;99.90
16253;DHT22;8234;41.480;2.306;2023-01-28T15:48:28;10.30;99.90
16253;DHT22;8234;41.480;2.306;2023-01-28T15:58:33;10.30;99.90
16253;DHT22;8234;41.480;2.306;2023-01-28T16:08:43;10.10;99.90
16253;DHT22;8234;41.480;2.306;2023-01-28T16:18:52;9.70;99.90
16253;DHT22;8234;41.480;2.306;2023-01-28T16:29:00;9.10;99.90
16253;DHT22;8234;41.480;2.306;2023-01-28T16:39:04;8.90;99.90
16253;DHT22;8234;41.480;2.306;2023-01-28T16:49:09;8.60;99.90
16253;DHT22;8234;41.480;2.306;2023-01-28T16:59:13;8.60;99.90
16253;DHT22;8234;41.480;2.306;2023-01-28T17:09:19;8.60;99.90
16253;DHT22;8234;41.480;2.306;2023-01-28T17:19:23;8.40;99.90
16253;DHT22;8234;41.480;2.306;2023-01-28T17:29:28;8.20;99.90
16253;DHT22;8234;41.480;2.306;2023-01-28T17:39:32;8.60;99.90
16253;DHT22;8234;41.480;2.306;2023-01-28T17:49:37;8.70;99.90
16253;DHT22;8234;41.480;2.306;2023-01-28T17:59:41;8.40;99.90
16253;DHT22;8234;41.480;2.306;2023-01-28T18:09:46;8.50;99.90
16253;DHT22;8234;41.480;2.306;2023-01-28T18:19:50;8.50;99.90
16253;DHT22;8234;41.480;2.306;2023-01-28T18:29:55;8.10;99.90
16253;DHT22;8234;41.480;2.306;2023-01-28T18:39:59;8.00;99.90
16253;DHT22;8234;41.480;2.306;2023-01-28T18:50:05;7.90;99.90
16253;DHT22;8234;41.480;2.306;2023-01-28T19:00:10;7.90;99.90
16253;DHT22;8234;41.480;2.306;2023-01-28T19:10:16;7.70;99.90
16253;DHT22;8234;41.480;2.306;2023-01-28T19:20:20;7.80;99.90
16253;DHT22;8234;41.480;2.306;2023-01-28T19:30:26;7.70;99.90
16253;DHT22;8234;41.480;2.306;2023-01-28T19:40:29;7.70;99.90
16253;DHT22;8234;41.480;2.306;2023-01-28T19:50:35;7.60;99.90
16253;DHT22;8234;41.480;2.306;2023-01-28T20:00:39;7.60;99.90
16253;DHT22;8234;41.480;2.306;2023-01-28T20:10:45;7.60;99.90
16253;DHT22;8234;41.480;2.306;2023-01-28T20:20:51;7.50;99.90
16253;DHT22;8234;41.480;2.306;2023-01-28T20:30:56;7.50;99.90
16253;DHT22;8234;41.480;2.306;2023-01-28T20:41:06;7.30;99.90
16253;DHT22;8234;41.480;2.306;2023-01-28T20:51:13;7.00;99.90
16253;DHT22;8234;41.480;2.306;2023-01-28T21:01:18;7.00;99.90
16253;DHT22;8234;41.480;2.306;2023-01-28T21:11:25;6.70;99.90
16253;DHT22;8234;41.480;2.306;2023-01-28T21:21:29;6.80;99.90
16253;DHT22;8234;41.480;2.306;2023-01-28T21:31:34;7.00;99.90
16253;DHT22;8234;41.480;2.306;2023-01-28T21:41:39;7.00;99.90
16253;DHT22;8234;41.480;2.306;2023-01-28T21:51:44;7.10;99.90
16253;DHT22;8234;41.480;2.306;2023-01-28T22:01:48;7.00;99.90
16253;DHT22;8234;41.480;2.306;2023-01-28T22:11:53;6.90;99.90
16253;DHT22;8234;41.480;2.306;2023-01-28T22:21:58;7.00;99.90
16253;DHT22;8234;41.480;2.306;2023-01-28T22:32:03;6.80;99.90
16253;DHT22;8234;41.480;2.306;2023-01-28T22:42:07;6.50;99.90
16253;DHT22;8234;41.480;2.306;2023-01-28T22:52:12;6.40;99.90
16253;DHT22;8234;41.480;2.306;2023-01-28T23:02:16;6.50;99.90
16253;DHT22;8234;41.480;2.306;2023-01-28T23:12:21;6.30;99.90
16253;DHT22;8234;41.480;2.306;2023-01-28T23:22:27;6.40;99.90
16253;DHT22;8234;41.480;2.306;2023-01-28T23:32:54;6.70;99.90
16253;DHT22;8234;41.480;2.306;2023-01-28T23:42:58;6.40;99.90
16253;DHT22;8234;41.480;2.306;2023-01-28T23:53:04;6.10;99.90
